Garden Grove, IA (50103)

7:17 PM CDT on August 28, 2016 (GMT -0500)
Lamoni Municipal | | Change Station

Elev 1132 ft 40.63 °N, 93.90 °W | Updated 24 minutes ago

Partly Cloudy
Partly Cloudy
72 °F
Feels Like 72 °F
N
0
Wind Variable Wind from North

Today
High -- | Low -- °F
--% Chance of Precip.
Yesterday
High -- | Low -- °F
Precip. -- in
Pressure 30.09 in
Visibility 10.0 miles
Clouds Few 10000 ft
Dew Point 70 °F
Humidity 93%
Rainfall 0.03 in
Snow Depth Not available.
6:38 AM 7:52 PM
Waning Crescent, 12% visible
METAR KLWD 282353Z AUTO 00000KT 10SM FEW100 22/21 A3011 RMK AO2 LTG DSNT E SLP189 60003 T02220211 10300 20217 58006
Pressure 30.09 in
Visibility 10.0 miles
Clouds Few 10000 ft
Dew Point 70 °F
Humidity 93%
Rainfall 0.03 in
Snow Depth Not available.
6:38 AM 7:52 PM
Waning Crescent, 12% visible
METAR KLWD 282353Z AUTO 00000KT 10SM FEW100 22/21 A3011 RMK AO2 LTG DSNT E SLP189 60003 T02220211 10300 20217 58006

10-Day Weather Forecast

Almanac

Astronomy

Aug. 28, 2016 Rise Set
Actual Time
Civil Twilight
Nautical Twilight
Astronomical Twilight
Moon
Length of Visible Light
Length of Day
Tomorrow will be .
, % of the Moon is Illuminated

Today's Extremes

State Highs State Lows

Community

WunderPhotos

Upload Photos

1,935,728 photos uploaded!

WunderBlog® & News

Nearby

Air Quality

  Air Quality AQ Index Pollutant
Not available.

Snow Depth

Station Depth Elevation

Earthquake Activity

City Distance Mag. Time & Date
Minimum magnitude displayed is 2.5.

Coastal Water Temperatures

Place Temperature

Stations

Nearby Weather Stations

Station Location Temp. Windchill Dew Point Humidity Wind Precip. Elev Updated Type
                   

Watches & Warnings

There are currently no watches in effect.